Time;durP1;ratioP1;P1;durP2;ratioP2;P2;SDS_P1;SDS_P2;PMS_P1;PMS_P2;Temp;Humidity;BMP_temperature;BMP_pressure;BME280_temperature;BME280_humidity;BME280_pressure;Samples;Min_cycle;Max_cycle;Signal;HPM_P1;HPM_P2
2023/03/18 00:02:13;;;;;;;7.75;3.40;;;;;;;9.45;95.04;99973.19;5087376;29;20043;-72
2023/03/18 00:04:44;;;;;;;11.15;3.42;;;;;;;9.59;94.52;99985.69;5100558;29;20050;-72
2023/03/18 00:07:15;;;;;;;9.65;3.40;;;;;;;9.58;92.52;99973.53;5112285;29;20063;-72
2023/03/18 00:09:45;;;;;;;7.53;3.00;;;;;;;9.58;92.52;99969.19;5117397;29;20110;-74
2023/03/18 00:12:15;;;;;;;8.30;2.67;;;;;;;9.55;92.47;99971.06;5114801;29;20316;-72
2023/03/18 00:14:46;;;;;;;4.75;2.13;;;;;;;9.56;93.12;99964.94;5098079;29;20043;-72
2023/03/18 00:17:16;;;;;;;5.10;2.20;;;;;;;9.60;92.28;99976.94;5116001;29;20065;-73
2023/03/18 00:19:47;;;;;;;5.47;2.22;;;;;;;9.66;94.23;99977.53;5117851;29;20058;-72
2023/03/18 00:22:18;;;;;;;3.90;1.98;;;;;;;9.43;94.50;99974.16;5111607;29;20042;-72
2023/03/18 00:24:48;;;;;;;3.97;2.00;;;;;;;9.56;94.55;99972.75;5113346;29;20097;-72
2023/03/18 00:27:18;;;;;;;4.60;2.20;;;;;;;9.52;94.32;99985.06;5112357;29;20039;-72
2023/03/18 00:29:49;;;;;;;4.38;1.70;;;;;;;9.55;94.92;99981.50;5118274;29;20481;-72
2023/03/18 00:32:20;;;;;;;4.65;1.98;;;;;;;9.49;94.29;99986.97;5114590;29;20085;-72
2023/03/18 00:34:50;;;;;;;4.63;2.20;;;;;;;9.30;95.24;99980.81;5110276;29;20031;-72
2023/03/18 00:37:29;;;;;;;3.78;2.15;;;;;;;9.25;96.85;99985.34;5115234;29;20676;-72
2023/03/18 00:40:05;;;;;;;6.18;2.30;;;;;;;9.24;96.77;99988.84;5116949;29;20511;-72
2023/03/18 00:42:38;;;;;;;3.70;2.17;;;;;;;9.22;95.02;99983.72;5093751;29;20123;-72
2023/03/18 00:45:10;;;;;;;4.38;1.90;;;;;;;9.29;95.31;99984.31;5106131;29;20122;-72
2023/03/18 00:47:42;;;;;;;4.38;2.03;;;;;;;9.32;95.94;99992.84;5099027;29;20034;-73
2023/03/18 00:50:13;;;;;;;3.78;2.03;;;;;;;9.39;94.82;99994.31;5116988;29;20575;-72
2023/03/18 00:52:44;;;;;;;4.78;1.95;;;;;;;9.45;93.67;99999.28;5109832;29;20039;-73
2023/03/18 00:55:14;;;;;;;3.58;1.90;;;;;;;9.45;93.72;99999.28;5105698;29;20502;-73
2023/03/18 00:57:45;;;;;;;4.55;1.90;;;;;;;9.42;95.60;99994.19;5114499;29;20126;-72
2023/03/18 01:00:15;;;;;;;4.53;1.88;;;;;;;9.46;97.52;99990.53;5113043;29;20037;-74
2023/03/18 01:02:48;;;;;;;5.38;2.00;;;;;;;9.36;97.33;99989.25;5112943;29;20063;-73
2023/03/18 01:05:19;;;;;;;3.65;1.50;;;;;;;9.35;97.08;99994.50;5102528;29;20035;-73
2023/03/18 01:07:49;;;;;;;3.97;1.88;;;;;;;9.34;97.04;99996.25;5115229;29;20559;-72
2023/03/18 01:10:19;;;;;;;4.35;1.60;;;;;;;9.49;93.96;99997.41;5116602;29;20035;-74
2023/03/18 01:12:50;;;;;;;2.78;1.42;;;;;;;9.63;92.13;100000.31;5109389;29;20142;-73
2023/03/18 01:15:20;;;;;;;3.35;1.30;;;;;;;9.76;90.23;99997.13;5099497;28;20034;-74
2023/03/18 01:17:55;;;;;;;1.70;0.98;;;;;;;9.91;87.71;99995.63;5109639;29;20113;-73
2023/03/18 01:20:25;;;;;;;3.30;1.10;;;;;;;10.03;86.60;99990.75;5116484;29;20035;-72
2023/03/18 01:22:57;;;;;;;2.53;1.20;;;;;;;10.15;85.54;100002.47;5108355;29;20414;-73
2023/03/18 01:25:28;;;;;;;2.28;1.10;;;;;;;10.22;84.98;99990.84;5105573;29;20142;-74
2023/03/18 01:27:59;;;;;;;2.90;1.20;;;;;;;10.26;84.61;99993.25;5116740;29;20568;-73
2023/03/18 01:30:30;;;;;;;2.38;1.15;;;;;;;10.30;83.99;99991.34;5115755;29;20031;-72
2023/03/18 01:33:03;;;;;;;3.47;1.20;;;;;;;10.34;83.49;99987.69;5109075;29;20114;-72
2023/03/18 01:35:35;;;;;;;3.78;1.20;;;;;;;10.32;82.86;99999.97;5105747;29;20414;-72
2023/03/18 01:38:06;;;;;;;2.65;1.40;;;;;;;10.33;83.07;99996.44;5108927;29;20023;-71
2023/03/18 01:40:39;;;;;;;6.13;1.50;;;;;;;10.32;82.74;100002.59;5106382;29;20070;-72
2023/03/18 01:43:11;;;;;;;3.78;1.30;;;;;;;10.25;83.39;100007.22;5105118;29;20035;-74
2023/03/18 01:45:46;;;;;;;4.30;1.55;;;;;;;10.14;83.76;100006.00;5106007;29;20446;-73
2023/03/18 01:48:19;;;;;;;3.67;1.35;;;;;;;10.06;85.66;100013.28;5115801;29;20031;-73
2023/03/18 01:50:58;;;;;;;3.08;1.50;;;;;;;10.02;86.00;100011.72;5097543;29;20616;-72
2023/03/18 01:53:35;;;;;;;4.10;1.70;;;;;;;9.92;87.58;100008.63;5098747;29;20130;-73
2023/03/18 01:56:06;;;;;;;3.15;1.33;;;;;;;9.88;87.80;100004.47;5099521;29;20122;-73
2023/03/18 01:58:42;;;;;;;3.42;1.20;;;;;;;9.79;88.69;100007.44;5101680;29;20581;-73
2023/03/18 02:01:38;;;;;;;3.60;1.33;;;;;;;9.77;89.15;100011.88;5115627;29;20039;-72
2023/03/18 02:04:09;;;;;;;1.90;1.05;;;;;;;9.86;89.35;100006.25;5109715;29;20035;-73
2023/03/18 02:06:41;;;;;;;2.63;1.10;;;;;;;9.79;89.89;100009.22;5115887;29;20035;-74
2023/03/18 02:09:12;;;;;;;3.58;1.23;;;;;;;9.82;89.06;100009.09;5115461;29;20038;-74
2023/03/18 02:11:45;;;;;;;3.13;1.15;;;;;;;9.83;89.10;100016.81;5115092;29;20493;-72
2023/03/18 02:14:19;;;;;;;2.30;1.20;;;;;;;9.86;89.44;100015.88;5112834;29;20034;-72
2023/03/18 02:17:02;;;;;;;3.80;1.30;;;;;;;9.95;88.75;100010.25;5115708;29;20031;-72
2023/03/18 02:20:14;;;;;;;3.53;1.23;;;;;;;9.93;88.65;100015.53;5108501;29;20536;-71
2023/03/18 02:22:56;;;;;;;3.80;1.27;;;;;;;9.88;89.52;100019.25;5109274;29;20054;-73
2023/03/18 02:25:32;;;;;;;3.28;1.15;;;;;;;9.89;89.29;100011.38;5112905;29;20445;-73
2023/03/18 02:28:08;;;;;;;3.30;1.40;;;;;;;9.86;90.85;100018.47;5117491;29;20067;-73
2023/03/18 02:30:46;;;;;;;2.65;1.20;;;;;;;9.89;89.47;100010.50;5121984;28;20030;-74
2023/03/18 02:33:20;;;;;;;4.00;1.25;;;;;;;9.87;90.88;100007.13;5117175;28;20040;-73
2023/03/18 02:35:55;;;;;;;2.05;1.00;;;;;;;9.88;91.09;100019.25;5109020;29;20031;-72
2023/03/18 02:38:26;;;;;;;2.55;1.10;;;;;;;9.96;90.72;100022.41;5117079;29;20523;-72
2023/03/18 02:40:56;;;;;;;4.53;1.30;;;;;;;10.02;89.77;100028.22;5121469;28;20043;-73
2023/03/18 02:43:29;;;;;;;3.00;1.10;;;;;;;10.08;88.53;100034.94;5120394;29;20315;-73
2023/03/18 02:46:11;;;;;;;4.15;1.55;;;;;;;10.13;88.32;100030.41;5121926;28;20035;-73
2023/03/18 02:48:44;;;;;;;3.42;1.17;;;;;;;10.15;87.65;100034.63;5108851;29;20556;-73
2023/03/18 02:51:15;;;;;;;2.10;1.30;;;;;;;10.15;88.10;100026.81;5108915;28;20066;-74
2023/03/18 02:53:47;;;;;;;3.40;1.17;;;;;;;10.11;87.59;100037.44;5120226;28;20039;-73
2023/03/18 02:56:17;;;;;;;4.35;1.10;;;;;;;10.01;88.27;100036.09;5121006;29;20473;-73
2023/03/18 02:58:47;;;;;;;1.55;0.82;;;;;;;10.07;87.21;100035.88;5116832;29;20055;-72
2023/03/18 03:01:18;;;;;;;2.90;0.90;;;;;;;10.04;88.77;100033.41;5110795;28;20198;-72
2023/03/18 03:03:50;;;;;;;2.20;1.00;;;;;;;10.07;87.86;100046.31;5117747;28;20512;-72
2023/03/18 03:06:20;;;;;;;2.75;1.00;;;;;;;10.03;88.39;100047.38;5122122;28;20121;-72
2023/03/18 03:08:51;;;;;;;3.28;1.00;;;;;;;9.94;90.10;100043.34;5119707;28;20564;-72
2023/03/18 03:11:22;;;;;;;2.47;1.10;;;;;;;10.09;90.14;100041.88;5115113;28;20093;-73
2023/03/18 03:13:53;;;;;;;1.60;1.00;;;;;;;9.98;91.27;100051.91;5119774;28;20038;-72
2023/03/18 03:16:23;;;;;;;2.20;1.13;;;;;;;10.01;92.47;100050.03;5122310;28;20034;-73
2023/03/18 03:18:54;;;;;;;13.60;5.47;;;;;;;10.07;92.94;100041.09;5119947;28;20512;-72
2023/03/18 03:21:25;;;;;;;7.05;2.45;;;;;;;9.93;93.32;100043.38;5112204;29;20444;-72
2023/03/18 03:23:55;;;;;;;5.18;1.40;;;;;;;9.86;94.24;100047.19;5120110;29;20362;-72
2023/03/18 03:26:26;;;;;;;3.00;1.33;;;;;;;9.89;93.88;100050.53;5120991;29;20034;-72
2023/03/18 03:28:57;;;;;;;3.80;1.27;;;;;;;9.81;93.97;100054.34;5116535;29;20035;-72
2023/03/18 03:31:27;;;;;;;2.72;1.23;;;;;;;9.74;95.13;100050.28;5103490;29;20124;-72
2023/03/18 03:33:57;;;;;;;3.35;1.27;;;;;;;9.59;96.08;100053.50;5115218;29;20088;-72
2023/03/18 03:36:28;;;;;;;2.50;1.05;;;;;;;9.75;95.68;100057.19;5121859;28;20094;-72
2023/03/18 03:38:58;;;;;;;3.10;0.90;;;;;;;9.80;95.95;100063.09;5112688;28;20094;-73
2023/03/18 03:41:28;;;;;;;3.05;1.20;;;;;;;9.67;95.76;100056.66;5113931;29;20044;-72
2023/03/18 03:43:59;;;;;;;3.88;1.40;;;;;;;9.49;97.17;100062.63;5116774;29;20034;-73
2023/03/18 03:46:30;;;;;;;1.80;0.98;;;;;;;9.54;97.48;100064.13;5118265;29;20042;-72
2023/03/18 03:49:00;;;;;;;3.05;1.15;;;;;;;9.59;97.84;100074.38;5105798;29;20110;-72
2023/03/18 03:51:30;;;;;;;3.58;1.25;;;;;;;9.67;96.76;100078.38;5106239;29;20090;-73
2023/03/18 03:54:01;;;;;;;2.95;1.10;;;;;;;9.68;97.60;100082.69;5116790;29;20040;-72
2023/03/18 03:56:32;;;;;;;3.63;1.30;;;;;;;9.54;98.20;100076.31;5112172;29;20520;-72
2023/03/18 03:59:03;;;;;;;2.97;0.98;;;;;;;9.58;98.58;100083.09;5106347;29;20086;-72
2023/03/18 04:01:34;;;;;;;3.55;1.30;;;;;;;9.58;99.35;100083.09;5108281;29;20094;-72
2023/03/18 04:04:04;;;;;;;1.80;0.90;;;;;;;9.57;99.90;100091.84;5117705;29;20035;-72
2023/03/18 04:06:35;;;;;;;3.92;1.10;;;;;;;9.53;100.00;100095.50;5118032;29;20031;-72
2023/03/18 04:09:05;;;;;;;1.90;1.02;;;;;;;9.56;100.00;100092.75;5093051;29;20042;-72
2023/03/18 04:11:36;;;;;;;2.00;1.05;;;;;;;9.58;100.00;100085.72;5108893;29;20071;-72
2023/03/18 04:14:06;;;;;;;2.17;1.10;;;;;;;9.56;100.00;100083.19;5116816;29;20413;-72
2023/03/18 04:16:37;;;;;;;3.00;1.00;;;;;;;9.62;100.00;100090.75;5118484;29;20498;-71
2023/03/18 04:19:08;;;;;;;4.05;1.15;;;;;;;9.62;100.00;100084.72;5096739;29;20038;-72
2023/03/18 04:21:39;;;;;;;4.32;1.45;;;;;;;9.61;100.00;100088.19;5109118;29;20039;-72
2023/03/18 04:24:09;;;;;;;2.13;1.02;;;;;;;9.75;100.00;100091.13;5117578;29;20042;-72
2023/03/18 04:26:40;;;;;;;3.75;1.55;;;;;;;9.87;100.00;100085.41;5110838;29;20067;-73
2023/03/18 04:29:10;;;;;;;3.53;1.27;;;;;;;9.74;100.00;100092.03;5088962;29;20085;-74
2023/03/18 04:31:41;;;;;;;3.30;1.48;;;;;;;9.65;100.00;100089.78;5108567;29;20082;-73
2023/03/18 04:34:11;;;;;;;7.15;1.80;;;;;;;9.57;100.00;100091.84;5110923;29;20445;-73
2023/03/18 04:36:41;;;;;;;4.15;1.50;;;;;;;9.52;100.00;100088.56;5117578;29;20465;-73
2023/03/18 04:39:12;;;;;;;3.03;1.40;;;;;;;9.63;100.00;100091.63;5111260;29;20085;-74
2023/03/18 04:41:42;;;;;;;6.13;1.42;;;;;;;9.54;100.00;100087.63;5109291;29;20032;-73
2023/03/18 04:44:12;;;;;;;4.00;1.70;;;;;;;9.56;100.00;100090.16;5116165;29;20049;-73
2023/03/18 04:46:42;;;;;;;2.65;1.33;;;;;;;9.55;100.00;100083.22;5115656;28;20031;-73
2023/03/18 04:49:13;;;;;;;6.90;1.40;;;;;;;9.62;100.00;100089.94;5111531;29;20478;-74
2023/03/18 04:51:43;;;;;;;3.47;1.50;;;;;;;9.59;100.00;100090.03;5113790;29;20043;-73
2023/03/18 04:54:13;;;;;;;4.15;1.50;;;;;;;9.54;100.00;100097.19;5116667;29;20039;-73
2023/03/18 04:56:44;;;;;;;2.22;1.30;;;;;;;9.58;100.00;100096.16;5097609;29;20279;-72
2023/03/18 04:59:14;;;;;;;5.07;1.50;;;;;;;9.52;100.00;100099.00;5113022;29;20046;-73
2023/03/18 05:01:44;;;;;;;6.32;1.63;;;;;;;9.43;100.00;100094.13;5114933;29;20062;-73
2023/03/18 05:04:15;;;;;;;3.70;1.38;;;;;;;9.47;100.00;100106.16;5116965;29;20102;-72
2023/03/18 05:06:46;;;;;;;5.38;1.58;;;;;;;9.47;100.00;100107.00;5116856;29;20045;-72
2023/03/18 05:09:18;;;;;;;4.10;1.80;;;;;;;9.52;100.00;100115.50;5090293;29;20019;-73
2023/03/18 05:11:48;;;;;;;5.68;1.73;;;;;;;9.53;100.00;100106.78;5107575;29;20784;-72
2023/03/18 05:14:19;;;;;;;3.63;1.45;;;;;;;9.68;100.00;100097.50;5109798;29;20390;-72
2023/03/18 05:16:49;;;;;;;5.88;1.90;;;;;;;9.64;100.00;100103.75;5112878;29;20042;-73
2023/03/18 05:19:20;;;;;;;3.70;1.50;;;;;;;9.61;100.00;100099.50;5108417;29;20168;-72
2023/03/18 05:21:50;;;;;;;4.03;1.80;;;;;;;9.62;100.00;100102.97;5093357;29;20104;-72
2023/03/18 05:24:20;;;;;;;3.30;1.50;;;;;;;9.63;100.00;100099.44;5102907;29;20038;-72
2023/03/18 05:26:51;;;;;;;4.85;1.55;;;;;;;9.62;100.00;100100.34;5111298;29;20251;-72
2023/03/18 05:29:22;;;;;;;5.40;1.88;;;;;;;9.65;100.00;100100.22;5113353;28;20023;-72
2023/03/18 05:31:53;;;;;;;3.78;1.67;;;;;;;9.63;100.00;100102.88;5114328;29;20027;-73
2023/03/18 05:34:23;;;;;;;4.22;1.63;;;;;;;9.61;100.00;100098.63;5111817;29;20042;-72
2023/03/18 05:36:54;;;;;;;5.03;2.08;;;;;;;9.60;100.00;100107.38;5107659;29;20039;-73
2023/03/18 05:39:25;;;;;;;6.38;1.83;;;;;;;9.60;100.00;100100.41;5107367;29;20039;-73
2023/03/18 05:41:55;;;;;;;4.72;1.80;;;;;;;9.73;100.00;100103.38;5115146;29;20038;-72
2023/03/18 05:44:26;;;;;;;5.97;2.03;;;;;;;9.76;100.00;100104.13;5115432;29;20043;-72
2023/03/18 05:46:56;;;;;;;3.03;1.67;;;;;;;9.84;100.00;100091.59;5112223;29;20039;-72
2023/03/18 05:49:27;;;;;;;5.53;1.70;;;;;;;9.68;100.00;100092.28;5110237;29;20034;-72
2023/03/18 05:51:57;;;;;;;4.60;1.70;;;;;;;9.53;100.00;100105.91;5115439;29;20350;-72
2023/03/18 05:54:28;;;;;;;3.70;1.50;;;;;;;9.51;100.00;100105.13;5115973;29;20035;-72
2023/03/18 05:56:58;;;;;;;4.22;1.73;;;;;;;9.54;100.00;100098.06;5108983;29;20113;-72
2023/03/18 05:59:30;;;;;;;3.80;1.70;;;;;;;9.47;100.00;100093.97;5106758;29;20035;-72
2023/03/18 06:02:01;;;;;;;4.97;1.90;;;;;;;9.42;100.00;100097.66;5114716;28;20142;-72
2023/03/18 06:04:31;;;;;;;4.53;1.77;;;;;;;9.52;100.00;100109.44;5112902;29;20448;-72
2023/03/18 06:07:02;;;;;;;3.35;1.88;;;;;;;9.55;100.00;100104.09;5110608;29;20115;-72
2023/03/18 06:09:33;;;;;;;4.63;1.73;;;;;;;9.53;100.00;100105.91;5107098;29;20508;-71
2023/03/18 06:12:04;;;;;;;4.00;1.60;;;;;;;9.57;100.00;100102.28;5115469;29;20035;-71
2023/03/18 06:14:36;;;;;;;3.95;1.52;;;;;;;9.72;100.00;100106.91;5114565;29;20492;-71
2023/03/18 06:17:06;;;;;;;4.18;1.67;;;;;;;9.92;100.00;100105.19;5111138;29;20039;-72
2023/03/18 06:19:36;;;;;;;3.03;1.50;;;;;;;9.74;100.00;100110.28;5091243;29;20165;-73
2023/03/18 06:22:07;;;;;;;3.50;1.60;;;;;;;9.96;100.00;100111.16;5103501;29;20118;-73
2023/03/18 06:24:37;;;;;;;3.58;1.55;;;;;;;9.88;100.00;100108.00;5115391;29;20031;-73
2023/03/18 06:27:08;;;;;;;4.97;1.30;;;;;;;9.97;100.00;100105.03;5109562;29;20035;-72
2023/03/18 06:29:38;;;;;;;5.53;1.55;;;;;;;10.03;100.00;100107.41;5107376;29;20041;-72
2023/03/18 06:32:08;;;;;;;3.22;1.60;;;;;;;10.02;100.00;100105.72;5097347;29;20045;-71
2023/03/18 06:34:39;;;;;;;4.10;1.75;;;;;;;9.89;100.00;100107.06;5077153;29;20036;-70
2023/03/18 06:37:10;;;;;;;4.35;1.85;;;;;;;9.97;100.00;100108.47;5103139;29;20023;-71
2023/03/18 06:39:40;;;;;;;7.10;2.10;;;;;;;10.07;100.00;100120.28;5104809;29;20031;-72
2023/03/18 06:42:10;;;;;;;5.07;2.15;;;;;;;10.08;100.00;100116.75;5112110;29;20496;-72
2023/03/18 06:44:43;;;;;;;5.97;2.15;;;;;;;10.16;100.00;100127.72;5109339;29;20193;-73
2023/03/18 06:47:13;;;;;;;5.22;1.85;;;;;;;10.22;100.00;100126.63;5087424;29;20078;-71
2023/03/18 06:49:44;;;;;;;5.43;1.95;;;;;;;10.08;100.00;100137.63;5101632;29;20118;-73
2023/03/18 06:52:16;;;;;;;3.70;1.52;;;;;;;10.13;100.00;100147.91;5110789;29;20035;-72
2023/03/18 06:54:46;;;;;;;4.72;1.52;;;;;;;10.03;100.00;100138.72;5115471;29;20039;-71
2023/03/18 06:57:17;;;;;;;4.70;1.73;;;;;;;10.18;100.00;100138.13;5113353;29;20027;-72
2023/03/18 06:59:47;;;;;;;4.35;1.80;;;;;;;10.11;100.00;100141.88;5108724;29;20032;-72
2023/03/18 07:02:18;;;;;;;3.17;1.60;;;;;;;10.44;100.00;100140.47;5099840;29;20078;-72
2023/03/18 07:04:49;;;;;;;4.03;1.98;;;;;;;10.56;100.00;100139.97;5099561;29;20047;-72
2023/03/18 07:07:21;;;;;;;3.67;1.90;;;;;;;10.75;100.00;100146.97;5092406;29;20070;-72
2023/03/18 07:09:51;;;;;;;4.60;2.30;;;;;;;10.95;100.00;100143.47;5098140;29;20038;-71
2023/03/18 07:12:21;;;;;;;3.80;1.85;;;;;;;11.16;100.00;100148.59;5098612;29;20035;-72
2023/03/18 07:14:52;;;;;;;3.03;1.80;;;;;;;11.51;100.00;100155.72;5092118;29;20051;-72
2023/03/18 07:17:23;;;;;;;6.05;1.98;;;;;;;11.74;100.00;100163.38;5095456;29;20035;-71
2023/03/18 07:19:53;;;;;;;5.95;1.80;;;;;;;11.67;100.00;100172.44;5103929;29;20036;-72
2023/03/18 07:22:23;;;;;;;4.25;2.03;;;;;;;11.55;100.00;100173.81;5100268;29;20031;-72
2023/03/18 07:24:54;;;;;;;6.93;1.90;;;;;;;11.44;100.00;100170.00;5101309;29;20521;-72
2023/03/18 07:27:24;;;;;;;4.40;1.83;;;;;;;11.34;100.00;100173.94;5112014;29;20339;-72
2023/03/18 07:29:55;;;;;;;3.33;1.88;;;;;;;11.44;100.00;100165.59;5105173;29;20027;-72
2023/03/18 07:32:26;;;;;;;4.78;2.05;;;;;;;11.46;100.00;100174.22;5098872;29;20093;-71
2023/03/18 07:34:58;;;;;;;5.13;2.30;;;;;;;11.36;100.00;100180.81;5112025;29;20118;-72
2023/03/18 07:37:28;;;;;;;3.17;1.77;;;;;;;11.68;100.00;100175.00;5117989;29;20042;-72
2023/03/18 07:39:58;;;;;;;4.07;1.90;;;;;;;11.76;100.00;100175.47;5108414;29;20035;-72
2023/03/18 07:42:29;;;;;;;5.00;1.90;;;;;;;11.89;100.00;100179.22;5108986;29;20039;-72
2023/03/18 07:44:59;;;;;;;6.55;1.98;;;;;;;11.80;100.00;100190.13;5102944;29;20036;-71
2023/03/18 07:47:29;;;;;;;3.92;1.92;;;;;;;11.85;100.00;100184.66;5106547;29;20082;-72
2023/03/18 07:50:00;;;;;;;3.22;1.98;;;;;;;11.95;100.00;100189.41;5104462;28;20463;-72
2023/03/18 07:52:30;;;;;;;5.13;1.88;;;;;;;12.06;100.00;100197.59;5098817;29;20451;-72
2023/03/18 07:55:01;;;;;;;3.35;1.90;;;;;;;12.24;100.00;100196.72;5103897;29;20614;-72
2023/03/18 07:57:31;;;;;;;3.45;1.63;;;;;;;12.27;100.00;100186.09;5101436;29;20043;-72
2023/03/18 08:00:03;;;;;;;3.88;1.50;;;;;;;12.73;100.00;100193.38;5097257;29;20024;-72
2023/03/18 08:02:35;;;;;;;5.55;1.48;;;;;;;12.97;100.00;100194.78;5093067;29;20091;-72
2023/03/18 08:05:05;;;;;;;3.30;1.40;;;;;;;13.11;100.00;100203.66;5100946;29;20549;-73
2023/03/18 08:07:36;;;;;;;4.82;1.40;;;;;;;13.36;100.00;100200.56;5102288;29;20090;-73
2023/03/18 08:10:08;;;;;;;3.55;1.30;;;;;;;13.69;100.00;100204.03;5081899;29;20043;-72
2023/03/18 08:12:38;;;;;;;3.50;1.30;;;;;;;13.63;98.64;100191.25;5096525;29;20116;-72
2023/03/18 08:15:10;;;;;;;3.42;1.20;;;;;;;13.65;98.15;100205.13;5098800;29;20040;-74
2023/03/18 08:17:40;;;;;;;4.93;1.50;;;;;;;13.64;98.41;100204.31;5094867;29;20097;-73
2023/03/18 08:20:11;;;;;;;3.85;1.48;;;;;;;13.64;98.34;100206.06;5087462;29;20039;-72
2023/03/18 08:22:41;;;;;;;4.93;1.50;;;;;;;13.48;98.73;100208.69;5103314;29;20499;-70
2023/03/18 08:25:13;;;;;;;4.38;1.38;;;;;;;13.83;97.50;100219.91;5105354;29;20055;-72
2023/03/18 08:27:43;;;;;;;4.53;1.42;;;;;;;13.87;97.17;100211.78;5100971;29;20098;-72
2023/03/18 08:30:15;;;;;;;8.02;2.03;;;;;;;14.27;95.96;100211.28;5086953;29;20517;-73
2023/03/18 08:32:45;;;;;;;3.72;1.20;;;;;;;15.17;92.63;100206.78;5105287;29;20493;-73
2023/03/18 08:35:16;;;;;;;4.50;1.30;;;;;;;15.23;91.38;100209.06;5116034;29;20042;-71
2023/03/18 08:37:47;;;;;;;2.35;1.20;;;;;;;15.11;90.72;100211.56;5117168;29;20086;-70
2023/03/18 08:40:19;;;;;;;3.97;1.60;;;;;;;15.06;92.56;100214.50;5106404;29;20533;-72
2023/03/18 08:42:49;;;;;;;2.80;1.30;;;;;;;15.30;92.14;100212.19;5094679;29;20082;-72
2023/03/18 08:45:20;;;;;;;3.20;1.23;;;;;;;15.14;90.98;100217.50;5113485;29;20043;-72
2023/03/18 08:47:50;;;;;;;3.40;1.58;;;;;;;15.29;90.68;100218.41;5117309;29;20053;-72
2023/03/18 08:50:20;;;;;;;5.00;1.45;;;;;;;15.04;92.41;100221.59;5106121;29;20210;-72
2023/03/18 08:52:51;;;;;;;3.15;1.48;;;;;;;15.26;91.58;100216.78;5114154;29;20030;-73
2023/03/18 08:55:21;;;;;;;3.70;1.63;;;;;;;15.07;91.26;100221.47;5117767;29;20039;-73
2023/03/18 08:57:51;;;;;;;5.72;1.70;;;;;;;15.29;91.72;100226.28;5109680;29;20043;-73
2023/03/18 09:00:24;;;;;;;4.55;1.80;;;;;;;15.53;91.89;100227.47;5095213;29;20498;-72
2023/03/18 09:02:54;;;;;;;6.00;1.95;;;;;;;16.08;89.14;100228.34;5097714;29;20119;-72
2023/03/18 09:05:25;;;;;;;3.88;1.55;;;;;;;16.01;89.25;100227.06;5092793;29;20036;-72
2023/03/18 09:07:57;;;;;;;5.53;1.90;;;;;;;15.72;89.05;100228.84;5089009;29;20407;-73
2023/03/18 09:10:29;;;;;;;7.35;2.30;;;;;;;15.78;88.57;100225.00;5098848;29;20094;-72
2023/03/18 09:12:59;;;;;;;4.90;1.90;;;;;;;16.40;86.17;100224.53;5103100;29;20486;-72
2023/03/18 09:15:30;;;;;;;5.68;1.92;;;;;;;17.55;81.83;100221.91;5107866;29;20155;-72
2023/03/18 09:18:00;;;;;;;3.10;1.50;;;;;;;19.05;76.19;100215.16;5105547;29;20509;-72
2023/03/18 09:20:32;;;;;;;4.20;1.50;;;;;;;19.40;73.81;100215.09;5101873;29;20036;-73
2023/03/18 09:23:02;;;;;;;4.70;1.50;;;;;;;19.34;73.41;100220.91;5102549;29;20035;-74
2023/03/18 09:25:33;;;;;;;5.80;1.60;;;;;;;19.34;73.19;100219.09;5105472;29;20503;-73
2023/03/18 09:28:04;;;;;;;5.05;1.88;;;;;;;18.91;74.80;100223.28;5104435;29;20047;-72
2023/03/18 09:30:36;;;;;;;5.38;2.03;;;;;;;18.58;76.65;100218.81;5101898;29;20389;-72
2023/03/18 09:33:08;;;;;;;5.30;2.40;;;;;;;18.53;75.83;100223.59;5106767;29;20809;-72
2023/03/18 09:35:38;;;;;;;4.07;2.08;;;;;;;17.99;77.17;100222.28;5107024;29;20374;-74
2023/03/18 09:38:16;;;;;;;5.63;2.20;;;;;;;18.15;76.62;100226.34;5102987;29;20402;-73
2023/03/18 09:41:05;;;;;;;5.13;2.33;;;;;;;17.77;78.31;100222.09;5086166;29;20517;-72
2023/03/18 09:43:50;;;;;;;5.00;2.00;;;;;;;17.65;79.61;100236.19;5091736;29;20089;-71
2023/03/18 09:46:29;;;;;;;3.92;1.98;;;;;;;16.95;80.35;100236.63;5098775;29;20032;-72
2023/03/18 09:49:13;;;;;;;3.80;1.80;;;;;;;16.62;81.93;100246.78;5093101;29;20036;-73
2023/03/18 09:51:57;;;;;;;5.57;2.08;;;;;;;16.26;83.56;100253.53;5091572;29;20075;-72
2023/03/18 09:54:39;;;;;;;4.18;2.13;;;;;;;16.18;84.93;100251.38;5093902;29;20050;-73
2023/03/18 09:57:18;;;;;;;3.88;2.20;;;;;;;16.00;85.93;100251.69;5077786;29;20023;-73
2023/03/18 10:00:19;;;;;;;5.90;2.60;;;;;;;15.87;86.08;100254.25;5095461;29;20068;-73
2023/03/18 10:02:54;;;;;;;7.25;2.88;;;;;;;15.77;87.64;100268.09;5093553;29;20058;-73
2023/03/18 10:05:30;;;;;;;4.43;2.67;;;;;;;15.98;87.01;100259.72;5096829;29;20049;-72
2023/03/18 10:08:15;;;;;;;6.68;3.85;;;;;;;16.01;85.34;100264.78;5101285;29;20065;-72
2023/03/18 10:10:47;;;;;;;7.00;3.67;;;;;;;15.96;87.38;100258.97;5106986;29;20568;-72
2023/03/18 10:13:43;;;;;;;6.65;4.00;;;;;;;15.85;87.36;100265.84;5089791;29;20131;-73
2023/03/18 10:16:22;;;;;;;7.60;3.70;;;;;;;15.91;86.56;100261.03;5100266;28;20513;-73
2023/03/18 10:18:53;;;;;;;9.27;4.20;;;;;;;15.74;87.33;100255.94;5112816;29;20374;-73
2023/03/18 10:21:24;;;;;;;9.45;4.05;;;;;;;15.60;87.80;100269.13;5108644;28;20272;-73
2023/03/18 10:24:03;;;;;;;11.35;4.28;;;;;;;15.40;88.14;100266.00;5102653;29;20089;-73
2023/03/18 10:26:40;;;;;;;6.25;3.13;;;;;;;15.52;88.42;100268.75;5098744;28;20429;-74
2023/03/18 10:29:32;;;;;;;8.23;3.70;;;;;;;15.53;88.12;100272.25;5093121;29;20036;-72
2023/03/18 10:32:12;;;;;;;6.05;3.47;;;;;;;15.43;88.00;100271.94;5083504;29;20510;-74
2023/03/18 10:35:20;;;;;;;5.53;3.20;;;;;;;15.50;87.67;100283.78;5086514;29;20035;-74
2023/03/18 10:38:11;;;;;;;8.07;3.70;;;;;;;15.62;87.08;100271.66;5089787;29;20070;-74
2023/03/18 10:40:41;;;;;;;6.95;3.33;;;;;;;15.48;87.35;100275.16;5076481;29;20052;-73
2023/03/18 10:43:23;;;;;;;6.75;3.00;;;;;;;15.57;87.19;100276.38;5071741;29;20642;-73
2023/03/18 10:46:03;;;;;;;6.35;3.03;;;;;;;15.50;85.98;100278.53;5094895;29;20032;-73
2023/03/18 10:48:37;;;;;;;6.95;3.03;;;;;;;15.49;87.03;100275.97;5094266;29;20050;-74
2023/03/18 10:51:33;;;;;;;5.50;2.58;;;;;;;15.34;87.41;100271.66;5093687;28;20039;-71
2023/03/18 10:54:09;;;;;;;5.00;2.13;;;;;;;15.22;87.48;100274.97;5084414;29;20023;-73
2023/03/18 10:56:40;;;;;;;2.63;1.70;;;;;;;15.56;86.39;100277.31;5100289;29;20413;-74
2023/03/18 10:59:15;;;;;;;3.47;1.70;;;;;;;15.50;86.31;100278.53;5107140;29;20420;-74
2023/03/18 11:01:50;;;;;;;3.80;1.75;;;;;;;15.69;86.46;100278.28;5099840;28;20320;-75
2023/03/18 11:04:22;;;;;;;5.65;1.90;;;;;;;15.72;85.17;100278.91;5099657;29;20071;-74
2023/03/18 11:07:01;;;;;;;2.78;1.50;;;;;;;15.91;84.92;100279.47;5097487;29;20040;-74
2023/03/18 11:09:35;;;;;;;5.50;2.33;;;;;;;16.27;83.36;100277.19;5108768;29;20054;-74
2023/03/18 11:12:15;;;;;;;2.85;1.63;;;;;;;16.60;83.38;100266.28;5094469;29;20027;-74
2023/03/18 11:14:49;;;;;;;3.10;1.70;;;;;;;16.65;81.70;100272.09;5117270;29;20066;-74
2023/03/18 11:17:30;;;;;;;5.13;1.90;;;;;;;16.57;81.67;100272.59;5105464;29;20040;-74
2023/03/18 11:20:06;;;;;;;2.35;1.50;;;;;;;16.38;82.40;100280.00;5109712;28;20043;-73
2023/03/18 11:22:44;;;;;;;11.63;5.32;;;;;;;16.63;81.40;100277.50;5105521;29;20504;-74
2023/03/18 11:25:22;;;;;;;8.45;4.35;;;;;;;16.83;81.99;100272.59;5095832;29;20118;-72
2023/03/18 11:28:03;;;;;;;5.22;2.50;;;;;;;16.76;80.22;100280.19;5104670;29;20487;-74
2023/03/18 11:30:44;;;;;;;4.90;2.00;;;;;;;16.67;80.34;100273.72;5095519;29;20023;-74
2023/03/18 11:33:16;;;;;;;4.70;2.40;;;;;;;16.90;80.39;100273.03;5088757;29;20386;-73
2023/03/18 11:35:56;;;;;;;3.15;1.55;;;;;;;16.83;79.66;100279.69;5093606;29;20524;-74
2023/03/18 11:38:32;;;;;;;3.42;1.40;;;;;;;16.84;80.95;100279.56;5098580;29;20194;-74
2023/03/18 11:41:21;;;;;;;2.95;1.50;;;;;;;16.83;79.13;100287.59;5101311;29;20200;-74
2023/03/18 11:44:00;;;;;;;3.10;1.17;;;;;;;16.80;77.95;100288.63;5103620;29;20091;-74
2023/03/18 11:46:46;;;;;;;4.65;1.95;;;;;;;16.65;78.89;100286.16;5100436;29;20358;-71
2023/03/18 11:49:22;;;;;;;3.78;1.80;;;;;;;16.61;78.84;100281.19;5098325;29;20035;-73
2023/03/18 11:51:59;;;;;;;4.10;2.00;;;;;;;16.42;78.65;100281.50;5104398;29;20109;-74
2023/03/18 11:54:37;;;;;;;3.75;1.65;;;;;;;16.37;80.62;100285.41;5098886;29;20051;-73